Time;durP1;ratioP1;P1;durP2;ratioP2;P2;SDS_P1;SDS_P2;PMS_P1;PMS_P2;Temp;Humidity;BMP_temperature;BMP_pressure;BME280_temperature;BME280_humidity;BME280_pressure;Samples;Min_cycle;Max_cycle;Signal;HPM_P1;HPM_P2
2020/12/03 00:02:57;;;;;;;130.67;46.17;;;;;;;-4.97;85.94;99218.76;4460915;78;21163;-78
2020/12/03 00:09:13;;;;;;;110.53;40.27;;;;;;;-4.99;85.99;99210.73;4322855;81;21170;-78
2020/12/03 00:15:14;;;;;;;122.80;45.60;;;;;;;-5.10;86.14;99205.14;4308195;81;21288;-78
2020/12/03 00:21:16;;;;;;;122.83;45.63;;;;;;;-5.06;86.44;99205.66;4323221;81;21607;-77
2020/12/03 00:27:17;;;;;;;126.57;47.83;;;;;;;-5.05;86.41;99207.28;4303405;81;21144;-77
2020/12/03 00:33:18;;;;;;;121.73;47.07;;;;;;;-5.05;86.34;99181.92;4343199;81;21357;-79
2020/12/03 00:39:20;;;;;;;122.07;45.57;;;;;;;-5.04;86.41;99176.03;4282254;81;21165;-77
2020/12/03 00:45:23;;;;;;;122.73;47.47;;;;;;;-5.07;86.28;99184.58;4340910;81;21323;-77
2020/12/03 00:51:25;;;;;;;139.80;50.33;;;;;;;-5.07;86.41;99184.05;4329368;81;21165;-78
2020/12/03 00:57:26;;;;;;;124.03;47.07;;;;;;;-5.06;86.44;99176.30;4323185;81;21179;-78
2020/12/03 01:03:29;;;;;;;142.00;49.73;;;;;;;-5.03;86.38;99161.63;4331488;80;21163;-78
2020/12/03 01:09:32;;;;;;;128.80;46.57;;;;;;;-5.03;86.39;99154.41;4294624;81;21147;-78
2020/12/03 01:15:33;;;;;;;134.67;48.43;;;;;;;-5.10;86.24;99139.22;4291317;81;21339;-78
2020/12/03 01:21:34;;;;;;;129.03;49.47;;;;;;;-5.15;86.41;99134.41;4336122;81;21185;-78
2020/12/03 01:27:37;;;;;;;134.50;52.23;;;;;;;-5.02;86.62;99149.34;4346010;80;21337;-78
2020/12/03 01:33:40;;;;;;;134.70;49.10;;;;;;;-4.99;86.33;99130.12;4301333;81;21186;-77
2020/12/03 01:39:42;;;;;;;128.63;49.67;;;;;;;-5.04;86.33;99109.30;4292927;81;21284;-78
2020/12/03 01:45:55;;;;;;;128.13;50.57;;;;;;;-4.99;86.37;99102.09;4294371;81;21630;-77
2020/12/03 01:51:57;;;;;;;135.30;49.87;;;;;;;-5.05;86.18;99089.83;4313648;81;21384;-77
2020/12/03 01:58:04;;;;;;;131.70;47.03;;;;;;;-5.06;86.30;99086.87;4322004;81;21225;-77
2020/12/03 02:04:05;;;;;;;141.33;51.17;;;;;;;-5.10;86.30;99087.69;4342072;81;21756;-78
2020/12/03 02:10:08;;;;;;;132.20;46.67;;;;;;;-5.25;86.30;99079.73;4291509;81;21325;-77
2020/12/03 02:16:10;;;;;;;136.20;49.23;;;;;;;-5.28;86.21;99065.59;4320689;81;21325;-77
2020/12/03 02:22:11;;;;;;;136.90;49.33;;;;;;;-5.39;86.28;99058.69;4307723;81;21341;-79
2020/12/03 02:28:13;;;;;;;136.50;49.80;;;;;;;-5.49;86.20;99028.02;4320633;81;21153;-77
2020/12/03 02:34:16;;;;;;;138.10;49.33;;;;;;;-5.51;86.34;99034.17;4337916;81;21314;-78
2020/12/03 02:40:17;;;;;;;146.07;53.23;;;;;;;-5.47;86.48;99040.56;4314455;81;22022;-78
2020/12/03 02:46:19;;;;;;;155.00;50.47;;;;;;;-5.41;86.45;99039.47;4314371;81;21199;-80
2020/12/03 02:52:23;;;;;;;153.43;52.63;;;;;;;-5.38;86.36;99019.73;4319233;81;21320;-79
2020/12/03 02:58:25;;;;;;;152.03;51.47;;;;;;;-5.36;86.37;99025.60;4323562;81;21130;-77
2020/12/03 03:04:26;;;;;;;136.63;43.27;;;;;;;-5.25;86.39;99038.38;4319782;81;21246;-77
2020/12/03 03:10:28;;;;;;;145.20;48.93;;;;;;;-5.30;86.12;99054.39;4305485;81;21157;-77
2020/12/03 03:16:31;;;;;;;146.53;51.87;;;;;;;-5.55;86.07;99053.91;4454506;78;21318;-77
2020/12/03 03:22:33;;;;;;;139.53;48.53;;;;;;;-5.73;86.17;99052.34;4322371;81;21351;-77
2020/12/03 03:28:34;;;;;;;148.83;52.67;;;;;;;-5.85;86.15;99042.49;4317497;81;21181;-77
2020/12/03 03:34:36;;;;;;;152.57;54.00;;;;;;;-5.75;86.35;99045.13;4319588;81;21343;-77
2020/12/03 03:40:37;;;;;;;142.13;49.97;;;;;;;-5.58;86.61;99041.12;4310617;81;21175;-77
2020/12/03 03:46:39;;;;;;;144.87;50.67;;;;;;;-5.52;86.15;99013.36;4327781;81;21153;-78
2020/12/03 03:52:40;;;;;;;145.57;49.47;;;;;;;-5.45;86.33;99012.53;4335937;81;21143;-77
2020/12/03 03:58:42;;;;;;;129.57;48.67;;;;;;;-5.40;86.16;98991.70;4316550;81;21354;-78
2020/12/03 04:04:43;;;;;;;136.40;49.97;;;;;;;-5.44;86.23;98982.14;4329973;81;21175;-77
2020/12/03 04:10:45;;;;;;;134.80;51.83;;;;;;;-5.41;86.44;98970.92;4329133;81;21165;-77
2020/12/03 04:16:47;;;;;;;138.20;48.50;;;;;;;-5.42;86.26;98975.97;4325998;81;21165;-78
2020/12/03 04:22:48;;;;;;;155.90;50.23;;;;;;;-5.38;86.37;98962.38;4337846;81;21173;-78
2020/12/03 04:28:50;;;;;;;144.83;50.57;;;;;;;-5.39;86.16;98937.30;4308057;80;21171;-77
2020/12/03 04:34:51;;;;;;;139.33;50.13;;;;;;;-5.54;86.25;98932.81;4343469;80;21335;-77
2020/12/03 04:40:53;;;;;;;154.07;49.17;;;;;;;-5.72;86.28;98933.41;4346461;80;21180;-77
2020/12/03 04:47:18;;;;;;;143.20;50.60;;;;;;;-5.72;86.63;98940.60;4344482;80;21649;-77
2020/12/03 04:53:43;;;;;;;142.70;47.00;;;;;;;-5.70;86.58;98941.14;4324098;80;21730;-78
2020/12/03 05:00:05;;;;;;;171.50;60.43;;;;;;;-5.72;86.55;98937.41;4343503;80;21117;-78
2020/12/03 05:06:30;;;;;;;171.70;61.40;;;;;;;-5.69;86.38;98928.88;4339791;81;21601;-77
2020/12/03 05:12:37;;;;;;;150.33;53.80;;;;;;;-5.75;86.32;98905.16;4345355;81;21774;-78
2020/12/03 05:19:00;;;;;;;147.33;48.53;;;;;;;-5.76;86.44;98900.34;4347282;80;21193;-77
2020/12/03 05:25:01;;;;;;;139.90;46.83;;;;;;;-5.81;86.48;98878.25;4335541;80;21761;-77
2020/12/03 05:31:25;;;;;;;152.37;50.37;;;;;;;-5.93;86.57;98870.58;4317780;80;21122;-77
2020/12/03 05:37:28;;;;;;;149.40;48.70;;;;;;;-5.98;86.60;98861.81;4337134;80;21173;-79
2020/12/03 05:43:30;;;;;;;159.57;50.83;;;;;;;-5.97;86.77;98866.06;4298205;81;21192;-77
2020/12/03 05:49:37;;;;;;;145.80;46.30;;;;;;;-5.94;86.51;98875.66;4307205;81;21316;-77
2020/12/03 05:55:39;;;;;;;151.70;47.23;;;;;;;-5.93;86.48;98873.77;4281003;81;21280;-78
2020/12/03 06:02:01;;;;;;;158.10;52.57;;;;;;;-5.81;86.64;98890.25;4327946;81;21351;-77
2020/12/03 06:08:52;;;;;;;159.27;50.40;;;;;;;-5.71;86.62;98888.86;4321316;81;21191;-77
2020/12/03 06:15:22;;;;;;;151.20;50.20;;;;;;;-5.76;86.32;98869.69;4323169;81;21179;-76
2020/12/03 06:21:53;;;;;;;154.10;50.10;;;;;;;-5.73;86.28;98862.47;4300779;81;21164;-77
2020/12/03 06:28:38;;;;;;;164.13;52.90;;;;;;;-5.85;86.19;98859.36;4297212;81;21816;-76
2020/12/03 06:34:47;;;;;;;143.57;49.83;;;;;;;-5.90;86.33;98850.04;4265128;83;21286;-76
2020/12/03 06:41:06;;;;;;;143.87;51.27;;;;;;;-5.92;86.24;98840.73;4366526;79;21136;-76
2020/12/03 06:47:28;;;;;;;152.57;49.20;;;;;;;-5.99;86.27;98834.35;4210050;82;21181;-76
2020/12/03 06:53:59;;;;;;;165.00;56.93;;;;;;;-6.04;86.27;98825.56;4353125;79;21272;-77
2020/12/03 07:00:15;;;;;;;135.63;50.73;;;;;;;-6.14;86.44;98790.97;4360294;79;21165;-76
2020/12/03 07:06:57;;;;;;;133.70;49.70;;;;;;;-6.19;86.32;98805.63;4356137;81;21136;-76
2020/12/03 07:13:54;;;;;;;139.10;47.37;;;;;;;-6.12;86.33;98800.83;4354684;79;21141;-79
2020/12/03 07:20:34;;;;;;;137.33;48.53;;;;;;;-5.84;86.56;98813.52;4363390;79;21186;-76
2020/12/03 07:27:11;;;;;;;146.23;54.83;;;;;;;-5.79;86.08;98818.25;4350885;80;21308;-76
2020/12/03 07:33:35;;;;;;;145.50;52.27;;;;;;;-5.68;86.22;98816.32;4279216;81;21157;-76
2020/12/03 07:39:37;;;;;;;151.70;56.10;;;;;;;-5.43;86.15;98806.85;4306237;81;21165;-76
2020/12/03 07:45:44;;;;;;;143.70;55.33;;;;;;;-5.29;86.07;98805.16;4283347;81;21310;-76
2020/12/03 07:51:51;;;;;;;162.97;57.53;;;;;;;-5.34;85.85;98806.55;4313294;81;21152;-76
2020/12/03 07:57:59;;;;;;;159.83;57.87;;;;;;;-5.30;86.01;98802.24;4293994;81;21155;-76
2020/12/03 08:04:21;;;;;;;161.13;56.83;;;;;;;-5.12;86.05;98810.94;4293071;81;23215;-76
2020/12/03 08:10:40;;;;;;;138.03;57.30;;;;;;;-5.04;85.66;98798.31;4310876;81;21196;-76
2020/12/03 08:16:44;;;;;;;150.03;56.90;;;;;;;-4.98;85.61;98788.66;4283499;81;21199;-76
2020/12/03 08:22:50;;;;;;;145.53;55.40;;;;;;;-5.07;85.54;98770.84;4331123;81;21208;-76
2020/12/03 08:28:52;;;;;;;144.37;54.70;;;;;;;-5.04;85.72;98767.09;4311924;81;21346;-76
2020/12/03 08:34:53;;;;;;;148.00;55.77;;;;;;;-5.01;85.57;98768.39;4310776;81;21183;-76
2020/12/03 08:41:00;;;;;;;154.17;55.37;;;;;;;-5.07;85.47;98759.64;4328762;81;21317;-77
2020/12/03 08:47:03;;;;;;;132.37;53.77;;;;;;;-4.98;85.48;98753.17;4305583;81;21191;-77
2020/12/03 08:53:12;;;;;;;153.50;57.40;;;;;;;-4.87;85.69;98746.67;4311144;81;21584;-77
2020/12/03 08:59:20;;;;;;;148.13;60.57;;;;;;;-4.60;85.62;98747.48;4306583;81;21178;-76
2020/12/03 09:05:21;;;;;;;138.87;56.57;;;;;;;-4.43;85.45;98753.95;4453584;78;21275;-76
2020/12/03 09:11:24;;;;;;;153.73;61.83;;;;;;;-4.39;85.11;98755.00;4461300;78;21321;-76
2020/12/03 09:17:28;;;;;;;163.93;64.77;;;;;;;-4.38;85.11;98720.50;4439521;78;21182;-77
2020/12/03 09:23:32;;;;;;;151.10;60.63;;;;;;;-4.42;85.14;98714.16;4458591;78;21217;-77
2020/12/03 09:29:33;;;;;;;146.87;60.87;;;;;;;-4.39;85.13;98720.79;4451565;78;21193;-77
2020/12/03 09:35:35;;;;;;;151.73;58.33;;;;;;;-4.27;85.08;98722.52;4476045;78;21186;-80
2020/12/03 09:41:37;;;;;;;153.47;60.97;;;;;;;-4.24;85.12;98727.28;4462984;78;21160;-77
2020/12/03 09:47:42;;;;;;;158.27;63.10;;;;;;;-4.16;85.12;98730.67;4465791;78;21285;-76
2020/12/03 09:53:46;;;;;;;149.07;59.70;;;;;;;-4.04;85.06;98727.06;4472441;78;21168;-77
2020/12/03 09:59:48;;;;;;;159.43;61.17;;;;;;;-3.87;84.83;98715.34;4480506;78;21835;-77
2020/12/03 10:06:06;;;;;;;166.40;66.97;;;;;;;-3.79;84.91;98691.97;4434135;78;22324;-76
2020/12/03 10:12:33;;;;;;;157.33;64.57;;;;;;;-3.73;84.87;98699.59;4454458;78;21165;-77
2020/12/03 10:18:49;;;;;;;141.97;59.37;;;;;;;-3.53;85.06;98693.98;4473492;78;21297;-77
2020/12/03 10:25:05;;;;;;;139.17;57.30;;;;;;;-3.41;84.69;98686.28;4464094;78;21133;-77
2020/12/03 10:31:09;;;;;;;137.80;57.13;;;;;;;-3.20;84.78;98688.09;4453562;78;21312;-77
2020/12/03 10:37:33;;;;;;;143.03;59.50;;;;;;;-3.09;84.49;98680.69;4456585;78;21278;-77
2020/12/03 10:43:35;;;;;;;138.87;57.93;;;;;;;-2.88;84.60;98675.23;4448780;78;21143;-76
2020/12/03 10:49:38;;;;;;;141.63;58.10;;;;;;;-2.99;84.32;98677.28;4448556;78;21159;-77
2020/12/03 10:55:41;;;;;;;129.60;56.10;;;;;;;-2.89;84.13;98665.06;4304972;81;21145;-77
2020/12/03 11:01:44;;;;;;;146.87;58.73;;;;;;;-2.84;84.27;98651.58;4335522;80;21299;-77
2020/12/03 11:07:55;;;;;;;139.70;57.73;;;;;;;-2.79;84.46;98646.67;4357837;80;21186;-78
2020/12/03 11:13:57;;;;;;;129.20;57.27;;;;;;;-2.87;84.40;98661.55;4343483;80;21155;-77
2020/12/03 11:20:03;;;;;;;131.63;54.70;;;;;;;-2.73;84.02;98654.32;4297759;81;21371;-77
2020/12/03 11:26:07;;;;;;;131.90;57.30;;;;;;;-2.75;84.08;98648.99;4342884;80;21189;-78
2020/12/03 11:32:08;;;;;;;127.50;57.33;;;;;;;-2.74;84.25;98637.98;4301870;81;21163;-77
2020/12/03 11:38:13;;;;;;;132.90;53.90;;;;;;;-2.66;84.05;98637.86;4337700;81;21569;-78
2020/12/03 11:44:27;;;;;;;137.77;56.67;;;;;;;-2.59;84.26;98622.96;4312695;80;21144;-77
2020/12/03 11:50:24;;;;;;;132.77;56.20;;;;;;;-2.59;83.93;98594.02;4320727;81;22267;-77
2020/12/03 11:56:28;;;;;;;134.43;55.93;;;;;;;-2.51;84.09;98596.81;4325014;81;21347;-77
2020/12/03 12:02:29;;;;;;;133.73;53.13;;;;;;;-2.47;84.01;98595.64;4343921;81;21813;-78
2020/12/03 12:14:49;;;;;;;126.90;59.17;;;;;;;-2.34;83.97;98574.19;4440882;79;24021;-79
2020/12/03 12:20:51;;;;;;;131.20;58.53;;;;;;;-2.33;84.11;98573.63;4374249;80;21195;-77
2020/12/03 12:26:54;;;;;;;155.03;64.47;;;;;;;-2.30;84.02;98579.75;4378979;80;21186;-77
2020/12/03 12:32:55;;;;;;;149.17;65.07;;;;;;;-2.35;83.78;98553.82;4381224;80;21210;-76
2020/12/03 12:38:57;;;;;;;154.53;69.83;;;;;;;-2.30;84.04;98565.78;4383188;79;21190;-77
2020/12/03 12:44:58;;;;;;;158.63;70.17;;;;;;;-2.22;83.91;98548.18;4376221;80;21332;-76
2020/12/03 12:51:00;;;;;;;168.03;72.07;;;;;;;-2.17;83.98;98531.98;4385096;80;21180;-76
2020/12/03 12:57:02;;;;;;;164.70;71.03;;;;;;;-2.16;83.93;98522.30;4386820;80;21181;-76
2020/12/03 13:03:05;;;;;;;166.97;73.57;;;;;;;-2.13;83.99;98502.14;4392995;80;21862;-77
2020/12/03 13:09:08;;;;;;;157.13;66.87;;;;;;;-2.08;84.09;98498.77;4372797;80;21606;-76
2020/12/03 13:15:10;;;;;;;158.77;69.20;;;;;;;-2.06;84.08;98483.72;4380105;79;21304;-77
2020/12/03 13:21:12;;;;;;;157.40;68.00;;;;;;;-2.05;83.92;98462.52;4380007;80;21138;-77
2020/12/03 13:27:13;;;;;;;153.70;67.03;;;;;;;-2.05;84.26;98459.84;4383448;80;21195;-77
2020/12/03 13:33:15;;;;;;;120.37;57.70;;;;;;;-1.95;84.48;98464.94;4377816;80;21336;-77
2020/12/03 13:39:17;;;;;;;119.53;54.03;;;;;;;-1.81;84.35;98450.90;4383107;80;21170;-77
2020/12/03 13:45:20;;;;;;;112.17;52.03;;;;;;;-1.68;84.60;98452.71;4384493;80;21202;-77
2020/12/03 13:51:21;;;;;;;133.13;60.03;;;;;;;-1.50;84.37;98452.25;4382919;80;21304;-78
2020/12/03 13:57:23;;;;;;;131.70;57.30;;;;;;;-1.43;84.36;98444.53;4373641;80;21157;-78
2020/12/03 14:03:24;;;;;;;123.47;57.43;;;;;;;-1.40;84.25;98447.39;4340629;80;21303;-77
2020/12/03 14:09:26;;;;;;;134.50;63.40;;;;;;;-1.43;84.11;98433.79;4343457;80;21168;-78
2020/12/03 14:15:27;;;;;;;144.43;62.67;;;;;;;-1.43;84.24;98427.08;4352100;80;21185;-77
2020/12/03 14:21:29;;;;;;;134.20;60.43;;;;;;;-1.42;84.23;98416.57;4351768;80;21947;-77
2020/12/03 14:27:30;;;;;;;138.53;63.13;;;;;;;-1.42;84.41;98423.28;4349369;80;21163;-77
2020/12/03 14:33:33;;;;;;;151.07;67.13;;;;;;;-1.38;84.33;98422.38;4332776;80;21335;-78
2020/12/03 14:39:34;;;;;;;154.27;70.13;;;;;;;-1.46;84.40;98390.92;4349779;80;21160;-77
2020/12/03 14:45:36;;;;;;;138.93;65.80;;;;;;;-1.49;84.46;98380.00;4352553;80;21184;-79
2020/12/03 14:51:42;;;;;;;139.20;63.87;;;;;;;-1.57;84.38;98387.47;4345133;80;21185;-77
2020/12/03 14:57:40;;;;;;;142.63;61.57;;;;;;;-1.65;84.39;98385.00;4351931;80;21179;-76
2020/12/03 15:03:41;;;;;;;144.37;62.00;;;;;;;-1.62;84.63;98387.06;4348577;80;21351;-77
2020/12/03 15:09:44;;;;;;;140.73;62.27;;;;;;;-1.63;84.80;98376.09;4347237;80;21220;-77
2020/12/03 15:15:46;;;;;;;134.37;61.80;;;;;;;-1.55;84.60;98375.88;4354220;80;21175;-77
2020/12/03 15:21:48;;;;;;;155.97;75.80;;;;;;;-1.70;84.76;98352.39;4358929;80;21347;-77
2020/12/03 15:27:50;;;;;;;140.33;63.70;;;;;;;-1.75;84.99;98364.60;4334443;80;21214;-77
2020/12/03 15:33:51;;;;;;;139.30;63.63;;;;;;;-1.77;84.97;98371.39;4351206;80;21309;-77
2020/12/03 15:39:53;;;;;;;172.30;80.53;;;;;;;-1.79;85.12;98346.21;4340316;80;21333;-76
2020/12/03 15:45:54;;;;;;;140.83;63.53;;;;;;;-1.78;85.20;98339.73;4347636;80;21148;-78
2020/12/03 15:51:56;;;;;;;142.50;62.67;;;;;;;-1.80;85.13;98352.66;4357829;80;21385;-77
2020/12/03 15:57:57;;;;;;;197.30;86.90;;;;;;;-1.72;85.33;98355.13;4347626;80;21172;-76
2020/12/03 16:03:59;;;;;;;205.10;89.33;;;;;;;-1.83;85.03;98329.67;4352629;80;21156;-76
2020/12/03 16:10:00;;;;;;;207.73;97.07;;;;;;;-1.86;85.38;98322.25;4352542;80;21159;-78
2020/12/03 16:16:02;;;;;;;173.33;81.03;;;;;;;-1.81;85.71;98335.53;4343859;81;21619;-78
2020/12/03 16:22:04;;;;;;;164.47;77.37;;;;;;;-1.75;85.39;98324.35;4344666;80;21138;-78
2020/12/03 16:28:05;;;;;;;189.13;89.07;;;;;;;-1.77;85.62;98322.52;4343009;80;21621;-78
2020/12/03 16:34:07;;;;;;;155.83;75.97;;;;;;;-1.77;85.67;98309.68;4337968;80;21185;-78
2020/12/03 16:40:09;;;;;;;180.47;82.10;;;;;;;-1.76;85.63;98292.47;4345072;81;21313;-78
2020/12/03 16:46:10;;;;;;;173.10;78.90;;;;;;;-1.73;85.86;98299.34;4339151;80;21327;-78
2020/12/03 16:52:12;;;;;;;174.57;80.07;;;;;;;-1.67;86.04;98302.66;4338762;80;21152;-78
2020/12/03 16:58:14;;;;;;;158.23;76.97;;;;;;;-1.65;86.02;98293.22;4334827;80;21553;-79
2020/12/03 17:04:16;;;;;;;157.77;75.07;;;;;;;-1.61;86.07;98291.48;4343978;80;21277;-78
2020/12/03 17:10:18;;;;;;;185.40;82.67;;;;;;;-1.61;85.92;98311.61;4350926;80;21335;-78
2020/12/03 17:16:19;;;;;;;175.73;80.37;;;;;;;-1.62;86.05;98295.81;4348476;80;21216;-77
2020/12/03 17:22:21;;;;;;;152.77;71.53;;;;;;;-1.59;86.21;98275.06;4345624;80;21319;-78
2020/12/03 17:28:22;;;;;;;163.50;74.17;;;;;;;-1.59;86.37;98271.03;4341399;80;21713;-77
2020/12/03 17:34:25;;;;;;;161.03;77.13;;;;;;;-1.49;86.52;98255.98;4345774;80;21668;-78
2020/12/03 17:40:26;;;;;;;140.60;66.43;;;;;;;-1.48;86.40;98256.21;4353284;80;21784;-78
2020/12/03 17:46:27;;;;;;;154.07;73.93;;;;;;;-1.55;86.52;98250.50;4347017;80;21733;-78
2020/12/03 17:52:29;;;;;;;152.77;74.07;;;;;;;-1.53;86.50;98248.87;4343161;80;21153;-78
2020/12/03 17:58:30;;;;;;;146.07;69.10;;;;;;;-1.57;86.37;98234.72;4347201;80;21169;-78
2020/12/03 18:04:32;;;;;;;165.80;76.27;;;;;;;-1.49;86.68;98237.20;4225706;80;10000180;-78
2020/12/03 18:10:33;;;;;;;153.77;71.63;;;;;;;-1.48;86.80;98222.66;4342222;80;21336;-80
2020/12/03 18:16:35;;;;;;;155.70;69.77;;;;;;;-1.46;86.72;98219.11;4367962;80;21621;-78
2020/12/03 18:22:36;;;;;;;146.13;66.37;;;;;;;-1.53;86.44;98216.09;4354274;80;21174;-79
2020/12/03 18:28:38;;;;;;;159.70;75.07;;;;;;;-1.58;86.68;98218.92;4354540;80;21308;-81
2020/12/03 18:34:39;;;;;;;166.43;71.73;;;;;;;-1.68;86.90;98228.06;4356676;80;21890;-79
2020/12/03 18:40:42;;;;;;;196.07;87.03;;;;;;;-1.58;87.00;98234.26;4364145;80;21314;-78
2020/12/03 18:46:51;;;;;;;186.53;84.43;;;;;;;-1.57;87.00;98231.80;4357747;80;21208;-79
2020/12/03 18:52:52;;;;;;;229.67;101.83;;;;;;;-1.55;86.94;98214.27;4369483;80;21152;-78
2020/12/03 18:58:54;;;;;;;229.27;101.87;;;;;;;-1.51;86.81;98206.38;4357826;80;21191;-78
2020/12/03 19:04:55;;;;;;;239.57;108.20;;;;;;;-1.54;87.17;98216.41;4365302;80;21191;-78
2020/12/03 19:10:58;;;;;;;189.57;87.00;;;;;;;-1.57;86.91;98221.87;4355233;80;21299;-78
2020/12/03 19:17:03;;;;;;;218.40;97.27;;;;;;;-1.57;86.85;98210.33;4351984;80;21153;-79
2020/12/03 19:23:03;;;;;;;246.13;107.63;;;;;;;-1.51;86.97;98223.29;4351966;80;21156;-78
2020/12/03 19:29:04;;;;;;;248.60;113.53;;;;;;;-1.61;87.18;98210.97;4341330;80;21324;-78
2020/12/03 19:35:08;;;;;;;224.80;99.67;;;;;;;-1.58;87.06;98211.45;4348163;80;21872;-78
2020/12/03 19:41:10;;;;;;;242.00;104.97;;;;;;;-1.63;86.93;98222.55;4350058;80;21153;-78
2020/12/03 19:47:12;;;;;;;247.93;107.13;;;;;;;-1.64;86.96;98229.58;4346298;80;21760;-78
2020/12/03 19:53:14;;;;;;;266.70;113.37;;;;;;;-1.61;87.32;98213.65;4362057;80;21182;-78
2020/12/03 19:59:15;;;;;;;299.30;129.33;;;;;;;-1.62;87.17;98210.73;4336181;80;21176;-78
2020/12/03 20:05:17;;;;;;;322.20;137.77;;;;;;;-1.78;86.82;98202.90;4349724;80;21335;-79
2020/12/03 20:11:19;;;;;;;247.27;114.10;;;;;;;-1.80;87.12;98201.61;4345433;80;22358;-79
2020/12/03 20:17:20;;;;;;;285.40;124.03;;;;;;;-1.90;86.90;98219.37;4351452;80;21151;-79
2020/12/03 20:23:22;;;;;;;277.27;126.47;;;;;;;-1.94;86.93;98193.71;4343409;80;21268;-79
2020/12/03 20:29:23;;;;;;;258.17;117.57;;;;;;;-2.09;87.10;98177.27;4353377;80;21203;-79
2020/12/03 20:35:25;;;;;;;231.80;110.13;;;;;;;-2.10;87.25;98157.70;4350059;80;21329;-78
2020/12/03 20:41:26;;;;;;;231.73;105.60;;;;;;;-2.15;87.12;98147.69;4343723;80;21669;-79
2020/12/03 20:47:29;;;;;;;220.87;104.77;;;;;;;-2.21;87.68;98140.90;4351585;80;22298;-78
2020/12/03 20:53:30;;;;;;;240.23;112.33;;;;;;;-2.19;87.45;98162.27;4344141;80;21909;-78
2020/12/03 20:59:32;;;;;;;236.97;107.13;;;;;;;-2.19;87.46;98140.02;4348374;80;22401;-78
2020/12/03 21:05:34;;;;;;;239.80;107.93;;;;;;;-2.21;87.11;98151.63;4344076;80;21181;-79
2020/12/03 21:11:36;;;;;;;287.77;124.43;;;;;;;-2.33;87.20;98151.42;4263265;81;21132;-79
2020/12/03 21:17:37;;;;;;;340.60;147.83;;;;;;;-2.42;87.10;98155.43;4217658;82;21343;-79
2020/12/03 21:23:40;;;;;;;320.13;142.10;;;;;;;-2.48;87.31;98137.12;4161938;83;21601;-78
2020/12/03 21:29:42;;;;;;;349.33;148.80;;;;;;;-2.53;87.31;98151.45;4186710;83;22204;-79
2020/12/03 21:35:43;;;;;;;347.67;147.47;;;;;;;-2.65;87.34;98141.08;4216244;83;21239;-79
2020/12/03 21:41:45;;;;;;;350.30;145.70;;;;;;;-2.65;87.18;98114.28;4216596;82;21242;-78
2020/12/03 21:47:48;;;;;;;379.60;157.27;;;;;;;-2.66;87.09;98109.47;4223317;82;21360;-78
2020/12/03 21:53:49;;;;;;;352.13;155.13;;;;;;;-2.76;87.24;98096.91;4226349;82;21161;-78
2020/12/03 21:59:51;;;;;;;303.90;137.50;;;;;;;-2.79;87.29;98103.69;4206399;82;21159;-78
2020/12/03 22:05:52;;;;;;;335.13;146.07;;;;;;;-2.81;87.14;98107.77;4223015;82;21152;-78
2020/12/03 22:11:54;;;;;;;317.87;139.00;;;;;;;-2.88;87.18;98106.86;4222717;81;22414;-77
2020/12/03 22:17:56;;;;;;;318.37;138.63;;;;;;;-3.00;86.93;98095.16;4215997;82;21261;-80
2020/12/03 22:23:58;;;;;;;311.03;135.27;;;;;;;-3.08;87.50;98073.14;4222601;82;21624;-78
2020/12/03 22:30:00;;;;;;;296.00;135.17;;;;;;;-3.03;87.63;98085.86;4221209;82;21198;-78
2020/12/03 22:36:01;;;;;;;272.17;119.47;;;;;;;-3.02;87.73;98082.64;4219662;82;21314;-78
2020/12/03 22:42:03;;;;;;;308.03;131.33;;;;;;;-3.09;87.72;98091.66;4216718;82;21685;-77
2020/12/03 22:48:04;;;;;;;293.80;127.63;;;;;;;-3.18;87.11;98083.59;4226512;82;21168;-78
2020/12/03 22:54:06;;;;;;;304.63;129.83;;;;;;;-3.19;87.51;98063.27;4226674;82;21342;-77
2020/12/03 23:00:09;;;;;;;264.57;114.00;;;;;;;-3.11;87.46;98034.41;4225046;82;21322;-78
2020/12/03 23:06:19;;;;;;;278.77;121.33;;;;;;;-3.19;87.39;98030.38;4211301;82;21328;-78
2020/12/03 23:12:20;;;;;;;282.80;124.50;;;;;;;-3.34;87.93;98032.89;4222288;82;21215;-78
2020/12/03 23:18:22;;;;;;;339.53;143.53;;;;;;;-3.31;87.75;98045.13;4224356;82;21772;-78
2020/12/03 23:24:24;;;;;;;305.73;131.87;;;;;;;-3.27;87.63;98015.30;4209484;82;21234;-78
2020/12/03 23:30:27;;;;;;;309.40;133.90;;;;;;;-3.35;87.64;97982.59;4216530;82;21218;-78
2020/12/03 23:36:29;;;;;;;290.87;124.27;;;;;;;-3.35;87.99;97985.80;4224024;82;21374;-78
2020/12/03 23:42:30;;;;;;;311.67;130.57;;;;;;;-3.46;87.00;97972.49;4210227;82;21350;-77
2020/12/03 23:48:32;;;;;;;283.47;124.33;;;;;;;-3.58;87.48;97981.08;4224758;82;21228;-77
2020/12/03 23:54:33;;;;;;;309.73;127.50;;;;;;;-3.49;87.64;97991.80;4213376;82;21356;-77
